Etusivu
METAR-TAF:

METAR-TAF

Lentoasemat :

Chariton Municipal Airport

Chariton, Iowa, Yhdysvallat

Leveyspiiri: 41-02N, Pituuspiiri: 093-22W, korkeus merenpinnasta: 320 m

Tämänhetkinen sää

Tämä raportti tehtiin 18 minuuttia sitten, kello 07.35 UTC
Tuuli 5 kn lännestä
Lämpötila 9°C
Kosteus 100%
Ilmanpaine 1015 hPa
Näkyvyys: 16.1 km
Hajanaisia pilviä 4000 ft:n korkeudessa
Hajanaisia pilviä 4800 ft:n korkeudessa
Hajonneita pilviä 6000 ft:n korkeudessa

METAR: KCNC 290735Z AUTO 28005KT 10SM SCT040 SCT048 BKN060 09/09 A2998 RMK AO2

Aika: 02:53 (07:53 UTC)


TAF: puuttuu

Säähavainnot ja -ennusteet yli 4000 lentoasemalta (METAR- ja TAF-raportit).

Käytössä olevat sääasemat on merkitty karttaan keltaisilla ja punaisilla pisteillä.

Aseta hiiri pisteen päälle nähdäksesi sääaseman nimen.

Klikkaa sitten nähdäksesi säähavainnot ja -ennusteet.

Kartan vaihtaminen: klikkaa mustalla rastilla varustettuja vihreitä pisteitä, niin voit zoomata sisään; viivalla varustettua vihreää pistettä, niin voit zoomata ulos tai vihreitä nuolia, niin pääset viereisille kartoille.


METAR-TAF: